Pagrindinis puslapis
METAR-TAF:

METAR-TAF

Oro uostai :

Amarilas, Teksasas, Jungtinės Amerikos Valstijos

platuma: 35-13-12N, ilguma: 101-43-02W, Aukštis: 1099 m

Dabartinis oras

Ataskaita buvo paskelbta 14 minutes, ne 04:53 UTC
Vėjas 12 kt iš Pietų
Temperatūra 26°C
Drėgmė 48%
Slėgis 1017 hPa
Matomumas: 16.1 km
Giedras dangus

METAR: KAMA 160453Z AUTO 19012KT 10SM CLR 26/14 A3003 RMK AO2 SLP106 T02610139

Laikas: 00:07 (05:07 UTC)

Prognozė

Ataskaita buvo paskelbta 5 valandos ir 45 minutes, ne 23:22 UTC
Prognozė galioja nuo 16 metu 00 UTC su 16 metu 24 UTC
Vėjas 12 kt iš Pietų
Matomumas: 10 km
Mažai debesys ne aukštis 25000 ft
Nuo 16 metu 1000 UTC
Vėjas 12 kt iš Vakarų/Šiaurės Vakarų
Matomumas: 10 km
Išsisklaidę debesys ne aukštis 25000 ft
Nuo 16 metu 1900 UTC
Vėjas 12 kt iš Šiaurės/Šiaurės Rytų
Matomumas: 10 km
Išsisklaidę debesys ne aukštis 20000 ft

TAF: KAMA 152322Z 1600/1624 18012KT P6SM FEW250 FM161000 29012KT P6SM SCT250 FM161900 03012KT P6SM SCT200

Orai ataskaitas ir orų prognozės (METAR, TAF).

turimą stotys yra geltonos ir raudonos taškus žemėlapyje.

Perkelti pele per norėdami pamatyti stoties vardą.

Tada spustelėkite, norėdami matyti oro stebėjimo ir prognozės.

Norėdami pakeisti žemėlapį: spustelėkite ant žalios mygtukų su juodo kryžiaus žemyn,; žalią mygtuką su brūkšneliu, jei norite nutolinti; arba žalių rodyklių gretimoms žemėlapius.


METAR-TAF: